sensor_id;sensor_type;location;lat;lon;timestamp;temperature;humidity
33841;DHT22;20142;28.494;-16.312;2023-04-19T07:25:23;16.20;91.70
33841;DHT22;20142;28.494;-16.312;2023-04-19T07:30:24;16.60;92.00
33841;DHT22;20142;28.494;-16.312;2023-04-19T07:35:26;16.80;90.90
33841;DHT22;20142;28.494;-16.312;2023-04-19T07:40:28;16.90;90.70
33841;DHT22;20142;28.494;-16.312;2023-04-19T07:45:30;16.90;90.90
33841;DHT22;20142;28.494;-16.312;2023-04-19T07:50:31;17.00;89.60
33841;DHT22;20142;28.494;-16.312;2023-04-19T07:55:33;17.00;89.80
33841;DHT22;20142;28.494;-16.312;2023-04-19T08:00:35;16.90;89.20
33841;DHT22;20142;28.494;-16.312;2023-04-19T08:05:37;16.80;88.70
33841;DHT22;20142;28.494;-16.312;2023-04-19T08:10:39;17.20;88.50
33841;DHT22;20142;28.494;-16.312;2023-04-19T08:15:41;17.20;88.30
33841;DHT22;20142;28.494;-16.312;2023-04-19T08:20:44;17.50;87.50
33841;DHT22;20142;28.494;-16.312;2023-04-19T08:25:46;17.50;86.80
33841;DHT22;20142;28.494;-16.312;2023-04-19T08:30:48;17.70;88.40
33841;DHT22;20142;28.494;-16.312;2023-04-19T08:35:50;18.20;85.80
33841;DHT22;20142;28.494;-16.312;2023-04-19T08:40:53;18.40;85.40
33841;DHT22;20142;28.494;-16.312;2023-04-19T08:45:55;18.30;85.50
33841;DHT22;20142;28.494;-16.312;2023-04-19T08:50:58;18.10;86.10
33841;DHT22;20142;28.494;-16.312;2023-04-19T08:56:01;18.20;85.10
33841;DHT22;20142;28.494;-16.312;2023-04-19T09:01:04;18.40;84.50
33841;DHT22;20142;28.494;-16.312;2023-04-19T09:06:06;18.30;83.80
33841;DHT22;20142;28.494;-16.312;2023-04-19T09:11:08;18.60;83.50
33841;DHT22;20142;28.494;-16.312;2023-04-19T09:16:23;19.00;83.20
33841;DHT22;20142;28.494;-16.312;2023-04-19T09:21:30;19.20;83.00
33841;DHT22;20142;28.494;-16.312;2023-04-19T09:26:33;19.50;81.50
33841;DHT22;20142;28.494;-16.312;2023-04-19T09:31:36;19.40;81.20
33841;DHT22;20142;28.494;-16.312;2023-04-19T09:36:38;19.60;80.70
33841;DHT22;20142;28.494;-16.312;2023-04-19T09:41:58;19.50;80.40
33841;DHT22;20142;28.494;-16.312;2023-04-19T09:47:00;19.60;80.80
33841;DHT22;20142;28.494;-16.312;2023-04-19T09:52:02;19.60;79.40
33841;DHT22;20142;28.494;-16.312;2023-04-19T09:57:05;19.50;78.60
33841;DHT22;20142;28.494;-16.312;2023-04-19T10:02:10;19.50;78.00
33841;DHT22;20142;28.494;-16.312;2023-04-19T10:07:12;19.60;78.30
33841;DHT22;20142;28.494;-16.312;2023-04-19T10:12:14;19.70;77.90
33841;DHT22;20142;28.494;-16.312;2023-04-19T10:17:16;19.80;78.00
33841;DHT22;20142;28.494;-16.312;2023-04-19T10:22:18;20.00;77.80
33841;DHT22;20142;28.494;-16.312;2023-04-19T10:27:24;20.30;77.90
33841;DHT22;20142;28.494;-16.312;2023-04-19T10:32:36;20.60;76.80
33841;DHT22;20142;28.494;-16.312;2023-04-19T10:38:02;20.50;77.20
33841;DHT22;20142;28.494;-16.312;2023-04-19T10:53:54;21.00;75.80
33841;DHT22;20142;28.494;-16.312;2023-04-19T11:04:09;21.10;74.70
33841;DHT22;20142;28.494;-16.312;2023-04-19T11:14:47;21.10;73.30
33841;DHT22;20142;28.494;-16.312;2023-04-19T11:20:07;21.30;73.90
33841;DHT22;20142;28.494;-16.312;2023-04-19T11:30:21;21.20;73.50
33841;DHT22;20142;28.494;-16.312;2023-04-19T11:35:29;21.30;72.50
33841;DHT22;20142;28.494;-16.312;2023-04-19T11:40:31;21.00;73.30
33841;DHT22;20142;28.494;-16.312;2023-04-19T11:45:35;20.80;73.90
33841;DHT22;20142;28.494;-16.312;2023-04-19T11:50:40;20.70;72.90
33841;DHT22;20142;28.494;-16.312;2023-04-19T11:55:46;20.60;74.00
33841;DHT22;20142;28.494;-16.312;2023-04-19T12:00:51;20.60;73.50
33841;DHT22;20142;28.494;-16.312;2023-04-19T12:05:56;20.90;73.50
33841;DHT22;20142;28.494;-16.312;2023-04-19T12:11:08;20.70;72.30
33841;DHT22;20142;28.494;-16.312;2023-04-19T12:16:11;20.50;71.90
33841;DHT22;20142;28.494;-16.312;2023-04-19T12:21:26;20.60;71.70
33841;DHT22;20142;28.494;-16.312;2023-04-19T12:26:29;20.60;70.80
33841;DHT22;20142;28.494;-16.312;2023-04-19T12:31:31;20.40;71.60
33841;DHT22;20142;28.494;-16.312;2023-04-19T12:36:33;20.30;69.80
33841;DHT22;20142;28.494;-16.312;2023-04-19T12:41:35;20.30;70.00
33841;DHT22;20142;28.494;-16.312;2023-04-19T12:46:36;20.20;70.90
33841;DHT22;20142;28.494;-16.312;2023-04-19T12:51:38;20.20;69.10
33841;DHT22;20142;28.494;-16.312;2023-04-19T12:56:40;20.40;70.70
33841;DHT22;20142;28.494;-16.312;2023-04-19T13:01:42;20.50;69.60
33841;DHT22;20142;28.494;-16.312;2023-04-19T13:06:43;20.50;69.10
33841;DHT22;20142;28.494;-16.312;2023-04-19T13:11:46;20.60;69.60
33841;DHT22;20142;28.494;-16.312;2023-04-19T13:16:47;20.60;68.60
33841;DHT22;20142;28.494;-16.312;2023-04-19T13:21:49;20.60;68.00
33841;DHT22;20142;28.494;-16.312;2023-04-19T13:26:51;20.60;69.10
33841;DHT22;20142;28.494;-16.312;2023-04-19T13:31:52;20.50;69.60
33841;DHT22;20142;28.494;-16.312;2023-04-19T13:36:54;20.80;69.00
33841;DHT22;20142;28.494;-16.312;2023-04-19T13:41:56;20.70;69.20
33841;DHT22;20142;28.494;-16.312;2023-04-19T13:46:58;20.70;69.70
33841;DHT22;20142;28.494;-16.312;2023-04-19T13:52:00;20.80;69.90
33841;DHT22;20142;28.494;-16.312;2023-04-19T13:57:02;20.70;70.30
33841;DHT22;20142;28.494;-16.312;2023-04-19T14:02:03;20.70;70.60
33841;DHT22;20142;28.494;-16.312;2023-04-19T14:07:05;20.70;70.60
33841;DHT22;20142;28.494;-16.312;2023-04-19T14:12:07;20.90;71.10
33841;DHT22;20142;28.494;-16.312;2023-04-19T14:17:09;21.40;70.50
33841;DHT22;20142;28.494;-16.312;2023-04-19T14:22:11;22.20;71.60
33841;DHT22;20142;28.494;-16.312;2023-04-19T14:27:12;23.50;69.20
33841;DHT22;20142;28.494;-16.312;2023-04-19T14:32:14;24.90;64.80
33841;DHT22;20142;28.494;-16.312;2023-04-19T14:37:17;26.40;64.20
33841;DHT22;20142;28.494;-16.312;2023-04-19T14:42:19;28.30;62.60
33841;DHT22;20142;28.494;-16.312;2023-04-19T14:47:21;29.20;59.40
33841;DHT22;20142;28.494;-16.312;2023-04-19T14:52:23;29.70;55.00
33841;DHT22;20142;28.494;-16.312;2023-04-19T14:57:28;30.10;55.70
33841;DHT22;20142;28.494;-16.312;2023-04-19T15:02:30;30.30;56.90
33841;DHT22;20142;28.494;-16.312;2023-04-19T15:07:32;30.60;53.70
33841;DHT22;20142;28.494;-16.312;2023-04-19T15:12:33;30.60;52.60
33841;DHT22;20142;28.494;-16.312;2023-04-19T15:17:35;31.10;53.50
33841;DHT22;20142;28.494;-16.312;2023-04-19T15:22:37;31.60;51.80
33841;DHT22;20142;28.494;-16.312;2023-04-19T15:27:39;32.50;49.30
33841;DHT22;20142;28.494;-16.312;2023-04-19T15:32:40;32.10;49.30
33841;DHT22;20142;28.494;-16.312;2023-04-19T15:37:42;32.20;47.40
33841;DHT22;20142;28.494;-16.312;2023-04-19T15:42:44;32.80;49.10
33841;DHT22;20142;28.494;-16.312;2023-04-19T15:47:46;33.80;46.60
33841;DHT22;20142;28.494;-16.312;2023-04-19T15:52:48;33.60;45.70
33841;DHT22;20142;28.494;-16.312;2023-04-19T15:57:49;33.30;45.20
33841;DHT22;20142;28.494;-16.312;2023-04-19T16:02:54;32.50;45.80
33841;DHT22;20142;28.494;-16.312;2023-04-19T16:08:04;30.70;47.70
33841;DHT22;20142;28.494;-16.312;2023-04-19T16:13:07;32.20;46.70
33841;DHT22;20142;28.494;-16.312;2023-04-19T16:18:09;30.80;47.70
33841;DHT22;20142;28.494;-16.312;2023-04-19T16:23:11;30.40;48.00
33841;DHT22;20142;28.494;-16.312;2023-04-19T16:28:14;29.70;49.20
33841;DHT22;20142;28.494;-16.312;2023-04-19T16:33:16;28.30;51.30
33841;DHT22;20142;28.494;-16.312;2023-04-19T16:38:18;29.80;50.30
33841;DHT22;20142;28.494;-16.312;2023-04-19T16:43:19;27.80;52.60
33841;DHT22;20142;28.494;-16.312;2023-04-19T16:48:22;27.00;52.90
33841;DHT22;20142;28.494;-16.312;2023-04-19T16:53:23;26.60;53.40
33841;DHT22;20142;28.494;-16.312;2023-04-19T16:58:25;26.70;55.10
33841;DHT22;20142;28.494;-16.312;2023-04-19T17:03:27;27.30;53.50
33841;DHT22;20142;28.494;-16.312;2023-04-19T17:08:30;26.30;54.90
33841;DHT22;20142;28.494;-16.312;2023-04-19T17:13:33;25.60;56.40
33841;DHT22;20142;28.494;-16.312;2023-04-19T17:18:34;25.20;57.00
33841;DHT22;20142;28.494;-16.312;2023-04-19T17:23:36;24.70;59.10
33841;DHT22;20142;28.494;-16.312;2023-04-19T17:28:38;23.90;59.40
33841;DHT22;20142;28.494;-16.312;2023-04-19T17:33:39;22.90;61.30
33841;DHT22;20142;28.494;-16.312;2023-04-19T17:38:41;22.80;62.30
33841;DHT22;20142;28.494;-16.312;2023-04-19T17:43:44;22.50;63.10
33841;DHT22;20142;28.494;-16.312;2023-04-19T17:48:46;22.10;63.50
33841;DHT22;20142;28.494;-16.312;2023-04-19T17:53:48;22.20;64.10
33841;DHT22;20142;28.494;-16.312;2023-04-19T17:58:49;23.30;63.90
33841;DHT22;20142;28.494;-16.312;2023-04-19T18:03:51;22.70;64.20
33841;DHT22;20142;28.494;-16.312;2023-04-19T18:08:53;22.30;65.00
33841;DHT22;20142;28.494;-16.312;2023-04-19T18:13:55;22.20;65.30
33841;DHT22;20142;28.494;-16.312;2023-04-19T18:18:56;21.80;66.50
33841;DHT22;20142;28.494;-16.312;2023-04-19T18:23:58;21.50;67.00
33841;DHT22;20142;28.494;-16.312;2023-04-19T18:29:00;21.10;67.90
33841;DHT22;20142;28.494;-16.312;2023-04-19T18:34:01;20.70;69.30
33841;DHT22;20142;28.494;-16.312;2023-04-19T18:39:03;20.50;69.70
33841;DHT22;20142;28.494;-16.312;2023-04-19T18:44:05;19.90;70.60
33841;DHT22;20142;28.494;-16.312;2023-04-19T18:49:07;19.60;72.70
33841;DHT22;20142;28.494;-16.312;2023-04-19T18:54:08;19.30;73.20
33841;DHT22;20142;28.494;-16.312;2023-04-19T18:59:10;18.90;73.90
33841;DHT22;20142;28.494;-16.312;2023-04-19T19:04:23;18.60;74.20
33841;DHT22;20142;28.494;-16.312;2023-04-19T19:09:25;18.40;75.30
33841;DHT22;20142;28.494;-16.312;2023-04-19T19:14:27;18.40;75.30
33841;DHT22;20142;28.494;-16.312;2023-04-19T19:19:29;18.30;75.60
33841;DHT22;20142;28.494;-16.312;2023-04-19T19:24:30;18.10;77.40
33841;DHT22;20142;28.494;-16.312;2023-04-19T19:29:32;18.00;77.40
33841;DHT22;20142;28.494;-16.312;2023-04-19T19:34:34;17.90;77.40
33841;DHT22;20142;28.494;-16.312;2023-04-19T19:39:37;17.90;77.40
33841;DHT22;20142;28.494;-16.312;2023-04-19T19:44:38;17.80;78.00
33841;DHT22;20142;28.494;-16.312;2023-04-19T19:49:40;17.70;78.00
33841;DHT22;20142;28.494;-16.312;2023-04-19T19:54:43;17.60;78.50
33841;DHT22;20142;28.494;-16.312;2023-04-19T19:59:45;17.50;78.30
33841;DHT22;20142;28.494;-16.312;2023-04-19T20:04:46;17.50;78.70
33841;DHT22;20142;28.494;-16.312;2023-04-19T20:09:48;17.50;78.90
33841;DHT22;20142;28.494;-16.312;2023-04-19T20:14:52;17.60;78.80
33841;DHT22;20142;28.494;-16.312;2023-04-19T20:19:53;17.70;78.70
33841;DHT22;20142;28.494;-16.312;2023-04-19T20:24:56;17.60;79.00
33841;DHT22;20142;28.494;-16.312;2023-04-19T20:29:58;17.80;79.20
33841;DHT22;20142;28.494;-16.312;2023-04-19T20:35:04;17.60;79.30
33841;DHT22;20142;28.494;-16.312;2023-04-19T20:40:13;17.50;79.50
33841;DHT22;20142;28.494;-16.312;2023-04-19T20:45:16;17.50;79.70
33841;DHT22;20142;28.494;-16.312;2023-04-19T20:50:19;17.50;79.60
33841;DHT22;20142;28.494;-16.312;2023-04-19T20:55:21;17.50;79.60
33841;DHT22;20142;28.494;-16.312;2023-04-19T21:00:22;17.40;79.80
33841;DHT22;20142;28.494;-16.312;2023-04-19T21:05:25;17.40;79.70
33841;DHT22;20142;28.494;-16.312;2023-04-19T21:10:27;17.50;79.90
33841;DHT22;20142;28.494;-16.312;2023-04-19T21:15:28;17.40;79.80
33841;DHT22;20142;28.494;-16.312;2023-04-19T21:20:30;17.50;80.30
33841;DHT22;20142;28.494;-16.312;2023-04-19T21:25:32;17.30;80.10
33841;DHT22;20142;28.494;-16.312;2023-04-19T21:30:34;17.30;80.10
33841;DHT22;20142;28.494;-16.312;2023-04-19T21:35:40;17.20;80.20
33841;DHT22;20142;28.494;-16.312;2023-04-19T21:40:42;17.40;80.40
33841;DHT22;20142;28.494;-16.312;2023-04-19T21:45:44;17.40;80.50
33841;DHT22;20142;28.494;-16.312;2023-04-19T21:50:45;17.40;80.30
33841;DHT22;20142;28.494;-16.312;2023-04-19T21:55:50;17.30;80.30
33841;DHT22;20142;28.494;-16.312;2023-04-19T22:00:52;17.30;80.60
33841;DHT22;20142;28.494;-16.312;2023-04-19T22:05:53;17.40;80.70
33841;DHT22;20142;28.494;-16.312;2023-04-19T22:10:55;17.30;80.60
33841;DHT22;20142;28.494;-16.312;2023-04-19T22:16:00;17.20;80.50
33841;DHT22;20142;28.494;-16.312;2023-04-19T22:21:02;17.20;81.00
33841;DHT22;20142;28.494;-16.312;2023-04-19T22:26:04;17.20;80.90
33841;DHT22;20142;28.494;-16.312;2023-04-19T22:31:06;17.10;80.80
33841;DHT22;20142;28.494;-16.312;2023-04-19T22:36:08;17.10;81.10
33841;DHT22;20142;28.494;-16.312;2023-04-19T22:41:09;17.10;81.10
33841;DHT22;20142;28.494;-16.312;2023-04-19T22:46:11;17.10;81.00
33841;DHT22;20142;28.494;-16.312;2023-04-19T22:51:13;17.10;81.30
33841;DHT22;20142;28.494;-16.312;2023-04-19T22:56:18;17.00;81.00
33841;DHT22;20142;28.494;-16.312;2023-04-19T23:01:20;16.90;81.00
33841;DHT22;20142;28.494;-16.312;2023-04-19T23:06:21;16.90;81.20
33841;DHT22;20142;28.494;-16.312;2023-04-19T23:11:23;17.00;81.20
33841;DHT22;20142;28.494;-16.312;2023-04-19T23:16:25;17.00;81.20
33841;DHT22;20142;28.494;-16.312;2023-04-19T23:21:28;17.00;81.30
33841;DHT22;20142;28.494;-16.312;2023-04-19T23:26:30;16.90;81.40
33841;DHT22;20142;28.494;-16.312;2023-04-19T23:31:32;17.00;81.30
33841;DHT22;20142;28.494;-16.312;2023-04-19T23:36:34;16.90;81.20
33841;DHT22;20142;28.494;-16.312;2023-04-19T23:41:35;16.90;81.40
33841;DHT22;20142;28.494;-16.312;2023-04-19T23:46:37;16.90;81.30
33841;DHT22;20142;28.494;-16.312;2023-04-19T23:51:39;16.90;81.20
33841;DHT22;20142;28.494;-16.312;2023-04-19T23:56:41;16.90;81.20
